This is the latest recevied weather packets stored in our database for station/object KK6LZB. If no packets are shown the sender has not sent any weather packets the latest 1 day(s).
| Time | Temp. | Humidity | Pressure | Rain* | Wind** | Luminosity | Snow |
|---|---|---|---|---|---|---|---|
| 1778027954 | 18.89° C | 64% | 1016.6 hPa | 0 mm | 0.89 m/s, 124° | 172 W/m² | - |
| 1778027651 | 18.89° C | 64% | 1016.4 hPa | 0 mm | 0.89 m/s, 41° | 184 W/m² | - |
| 1778027348 | 18.89° C | 63% | 1016.4 hPa | 0 mm | 0.89 m/s, 120° | 196 W/m² | - |
| 1778027044 | 19.44° C | 63% | 1016.4 hPa | 0 mm | 0.89 m/s, 220° | 209 W/m² | - |
| 1778026739 | 18.33° C | 64% | 1016.6 hPa | 0 mm | 2.24 m/s, 256° | 221 W/m² | - |
| 1778026436 | 20° C | 63% | 1016.7 hPa | 0 mm | 1.34 m/s, 111° | 237 W/m² | - |
| 1778026134 | 19.44° C | 63% | 1016.6 hPa | 0 mm | 0.45 m/s, 145° | 250 W/m² | - |
| 1778025831 | 19.44° C | 63% | 1016.6 hPa | 0 mm | 0.89 m/s, 243° | 266 W/m² | - |
| 1778025528 | 18.89° C | 67% | 1016.6 hPa | 0 mm | 1.79 m/s, 154° | 284 W/m² | - |
| 1778025225 | 17.78° C | 68% | 1016.6 hPa | 0 mm | 1.79 m/s, 222° | 304 W/m² | - |
| 1778024922 | 18.33° C | 68% | 1016.4 hPa | 0 mm | 2.24 m/s, 276° | 203 W/m² | - |
| 1778024620 | 18.33° C | 70% | 1016.4 hPa | 0 mm | 0.89 m/s, 46° | 95 W/m² | - |
| 1778024316 | 17.22° C | 70% | 1016.6 hPa | 0 mm | 2.68 m/s, 250° | 363 W/m² | - |
| 1778024015 | 17.78° C | 70% | 1016.6 hPa | 0 mm | 2.68 m/s, 212° | 91 W/m² | - |
| 1778023712 | 18.89° C | 67% | 1016.5 hPa | 0 mm | 1.79 m/s, 269° | 398 W/m² | - |
| 1778023410 | 18.33° C | 68% | 1016.6 hPa | 0 mm | 0.89 m/s, 32° | 396 W/m² | - |
| 1778023106 | 18.89° C | 66% | 1016.6 hPa | 0 mm | 2.24 m/s, 254° | 395 W/m² | - |
| 1778022804 | 18.89° C | 68% | 1016.6 hPa | 0 mm | 2.24 m/s, 180° | 301 W/m² | - |
| 1778022502 | 18.89° C | 67% | 1016.5 hPa | 0 mm | 0.45 m/s, 125° | 444 W/m² | - |
| 1778022198 | 18.89° C | 66% | 1016.4 hPa | 0 mm | 0.89 m/s, 68° | 289 W/m² | - |
| 1778021895 | 18.89° C | 67% | 1016.6 hPa | 0 mm | 2.68 m/s, 207° | 455 W/m² | - |
| 1778021592 | 18.89° C | 66% | 1016.7 hPa | 0 mm | 2.68 m/s, 252° | 425 W/m² | - |
| 1778021287 | 18.33° C | 68% | 1016.8 hPa | 0 mm | 1.34 m/s, 191° | 519 W/m² | - |
| 1778020986 | 18.89° C | 68% | 1016.5 hPa | 0 mm | 3.13 m/s, 269° | 509 W/m² | - |
| 1778020682 | 19.44° C | 63% | 1016.7 hPa | 0 mm | 0.89 m/s, 77° | 520 W/m² | - |
* Rain latest hour (hover to see other rain measurements)
** Current wind speed in m/s (hover to see current wind gust speed)